Time;durP1;ratioP1;P1;durP2;ratioP2;P2;SDS_P1;SDS_P2;PMS_P1;PMS_P2;Temp;Humidity;BMP_temperature;BMP_pressure;BME280_temperature;BME280_humidity;BME280_pressure;Samples;Min_cycle;Max_cycle;Signal;HPM_P1;HPM_P2
2022/06/18 00:01:37;;;;;;;3.67;3.00;;;18.20;50.00;;;17.30;52.28;98547.94;5089994;28;20443;-78
2022/06/18 00:04:12;;;;;;;3.73;3.43;;;18.20;50.10;;;17.25;52.62;98552.22;5066657;28;20474;-77
2022/06/18 00:06:51;;;;;;;4.33;3.60;;;18.10;50.50;;;17.09;53.48;98551.13;5089295;28;20494;-80
2022/06/18 00:09:20;;;;;;;3.80;3.20;;;18.00;50.70;;;17.04;53.11;98550.19;5091876;28;20439;-76
2022/06/18 00:14:34;;;;;;;3.30;3.10;;;17.90;50.90;;;16.94;53.91;98542.63;5098422;28;21066;-76
2022/06/18 00:17:02;;;;;;;3.70;3.40;;;17.80;51.10;;;16.84;53.56;98532.34;5088788;28;20471;-77
2022/06/18 00:19:29;;;;;;;3.40;3.20;;;17.80;51.10;;;16.85;53.64;98534.00;5089601;28;20459;-76
2022/06/18 00:21:57;;;;;;;6.07;3.97;;;17.70;51.20;;;16.79;53.93;98540.44;5087623;28;20913;-76
2022/06/18 00:24:25;;;;;;;3.97;3.67;;;17.60;51.20;;;16.81;53.79;98538.28;5107091;28;20459;-75
2022/06/18 00:26:52;;;;;;;3.90;3.50;;;17.60;51.20;;;16.74;53.88;98537.59;5089245;28;20504;-76
2022/06/18 00:29:20;;;;;;;4.90;2.90;;;17.60;51.10;;;16.74;53.55;98537.59;5089568;28;20970;-75
2022/06/18 00:31:47;;;;;;;4.13;3.73;;;17.60;51.30;;;16.75;54.14;98542.81;5090201;28;20451;-76
2022/06/18 00:34:16;;;;;;;3.83;3.40;;;17.50;51.30;;;16.60;54.04;98542.53;5087919;28;21096;-77
2022/06/18 00:36:44;;;;;;;4.07;3.33;;;17.50;51.30;;;16.65;53.48;98546.19;5081701;28;21067;-77
2022/06/18 00:39:17;;;;;;;3.90;3.10;;;17.50;51.20;;;16.56;53.40;98542.16;5088553;28;20472;-76
2022/06/18 00:41:46;;;;;;;4.23;3.47;;;17.40;51.00;;;16.44;54.05;98542.22;5088502;28;20440;-77
2022/06/18 00:44:30;;;;;;;3.70;3.40;;;17.30;50.90;;;16.50;53.70;98541.22;5088895;28;20488;-77
2022/06/18 00:47:21;;;;;;;3.37;3.07;;;17.30;51.00;;;16.58;53.32;98553.66;5086673;28;20453;-76
2022/06/18 00:49:54;;;;;;;4.10;3.50;;;17.30;51.00;;;16.55;53.15;98540.50;5088021;28;20487;-76
2022/06/18 00:52:29;;;;;;;4.80;3.70;;;17.40;50.80;;;16.48;53.49;98545.28;5068223;28;20498;-76
2022/06/18 00:55:04;;;;;;;3.90;3.47;;;17.30;50.90;;;16.31;53.77;98543.31;5069698;28;20943;-76
2022/06/18 00:57:37;;;;;;;6.77;3.60;;;17.20;51.00;;;16.23;54.17;98538.22;5070800;28;20459;-76
2022/06/18 01:00:11;;;;;;;3.33;3.03;;;17.10;51.30;;;16.11;54.68;98527.34;5091289;28;20524;-77
2022/06/18 01:02:41;;;;;;;6.77;3.63;;;17.00;51.40;;;16.07;55.15;98529.72;5085758;28;20508;-76
2022/06/18 01:05:20;;;;;;;6.90;3.47;;;17.00;51.70;;;16.16;54.75;98521.19;5090131;28;20943;-77
2022/06/18 01:07:53;;;;;;;5.53;4.00;;;17.00;51.90;;;16.17;54.60;98514.66;5088336;28;20546;-76
2022/06/18 01:10:30;;;;;;;6.83;4.13;;;17.00;51.80;;;15.81;54.51;98461.00;5091056;28;20502;-75
2022/06/18 01:13:00;;;;;;;6.80;4.60;;;17.00;52.00;;;16.21;54.93;98504.91;5089372;28;21074;-76
2022/06/18 01:15:28;;;;;;;7.47;4.60;;;17.00;52.00;;;16.22;54.61;98515.56;5084475;28;20472;-76
2022/06/18 01:17:57;;;;;;;7.43;5.00;;;17.10;52.00;;;16.19;54.99;98516.06;5076384;28;20464;-76
2022/06/18 01:20:26;;;;;;;8.30;4.77;;;17.00;52.00;;;16.21;54.85;98510.38;5088991;28;20448;-76
2022/06/18 01:23:02;;;;;;;8.20;4.90;;;17.00;51.80;;;16.16;54.29;98510.28;5087147;28;20947;-75
2022/06/18 01:25:32;;;;;;;5.43;4.27;;;17.00;51.80;;;16.18;54.80;98508.13;5087856;28;20955;-76
2022/06/18 01:28:00;;;;;;;10.70;4.23;;;17.00;51.90;;;16.14;54.64;98513.22;5089122;28;20451;-76
2022/06/18 01:30:35;;;;;;;8.33;4.60;;;17.00;51.90;;;16.00;54.37;98501.78;5089772;28;20642;-76
2022/06/18 01:33:06;;;;;;;5.13;4.23;;;16.90;51.60;;;16.04;55.05;98492.03;5099658;28;20458;-77
2022/06/18 01:35:37;;;;;;;5.23;4.43;;;16.90;51.90;;;16.03;55.10;98500.44;5087286;28;20971;-76
2022/06/18 01:38:04;;;;;;;4.77;4.27;;;16.90;52.00;;;16.03;55.64;98498.56;5087174;28;20454;-75
2022/06/18 01:40:41;;;;;;;6.20;4.10;;;16.90;52.40;;;15.93;55.69;98495.59;5089406;28;20919;-76
2022/06/18 01:43:13;;;;;;;9.30;4.63;;;16.80;52.50;;;15.99;55.90;98492.75;5083668;28;20459;-76
2022/06/18 01:45:42;;;;;;;5.13;3.90;;;16.90;52.80;;;15.87;56.03;98483.72;5085669;28;20451;-77
2022/06/18 01:48:18;;;;;;;6.20;4.13;;;16.80;52.90;;;15.88;56.10;98476.41;5085295;28;20451;-77
2022/06/18 01:50:50;;;;;;;6.30;4.10;;;16.80;52.80;;;15.79;56.16;98475.94;5092722;28;20455;-76
2022/06/18 01:53:21;;;;;;;6.97;3.80;;;16.70;53.10;;;15.79;55.91;98468.56;5086691;28;20451;-76
2022/06/18 01:55:55;;;;;;;4.30;3.90;;;16.70;52.90;;;15.80;56.58;98481.13;5086744;28;20468;-76
2022/06/18 01:58:29;;;;;;;3.87;3.13;;;16.60;53.10;;;15.70;56.54;98480.91;5087486;28;20459;-76
2022/06/18 02:01:00;;;;;;;3.80;3.40;;;16.60;53.10;;;15.66;56.55;98474.25;5076089;28;20963;-76
2022/06/18 02:03:27;;;;;;;3.90;3.30;;;16.60;53.20;;;15.66;56.33;98483.28;5079299;28;20466;-76
2022/06/18 02:05:56;;;;;;;4.03;3.63;;;16.60;53.20;;;15.64;56.49;98477.25;5086676;28;20526;-76
2022/06/18 02:08:23;;;;;;;3.77;3.47;;;16.50;53.30;;;15.63;56.57;98474.75;5088810;28;20444;-76
2022/06/18 02:10:57;;;;;;;3.30;3.00;;;16.50;53.20;;;15.58;56.02;98473.56;5089492;28;20493;-76
2022/06/18 02:13:33;;;;;;;7.87;3.23;;;16.50;52.90;;;15.58;55.70;98473.56;5088472;28;20451;-75
2022/06/18 02:16:01;;;;;;;3.27;3.07;;;16.50;52.80;;;15.44;55.78;98459.34;5087719;28;20459;-76
2022/06/18 02:18:31;;;;;;;3.83;3.53;;;16.40;52.60;;;15.42;56.19;98464.22;5086266;28;20448;-76
2022/06/18 02:20:59;;;;;;;3.20;3.00;;;16.40;52.70;;;15.36;56.29;98464.31;5073545;28;20459;-76
2022/06/18 02:23:27;;;;;;;3.70;3.40;;;16.30;52.70;;;15.42;56.39;98474.28;5087944;28;20443;-77
2022/06/18 02:25:55;;;;;;;3.40;3.07;;;16.30;52.90;;;15.46;56.31;98452.84;5063913;28;20501;-76
2022/06/18 02:28:27;;;;;;;5.83;3.23;;;16.30;53.10;;;15.05;56.72;98401.00;5081182;28;20509;-76
2022/06/18 02:30:59;;;;;;;4.80;3.33;;;16.30;53.10;;;15.02;56.96;98415.91;5081308;28;20487;-76
2022/06/18 02:33:36;;;;;;;3.40;3.17;;;16.20;53.40;;;15.26;57.29;98448.56;5080823;28;20468;-76
2022/06/18 02:36:12;;;;;;;3.60;3.30;;;16.20;53.60;;;15.32;57.21;98457.69;5082395;28;20571;-77
2022/06/18 02:38:39;;;;;;;3.90;3.60;;;16.20;53.80;;;15.32;57.43;98457.69;5068086;28;20974;-76
2022/06/18 02:41:09;;;;;;;3.30;3.00;;;16.20;53.80;;;15.20;57.60;98458.50;5068516;28;20444;-76
2022/06/18 02:43:38;;;;;;;4.63;4.07;;;16.20;54.00;;;15.10;57.75;98450.13;5067619;28;20444;-76
2022/06/18 02:46:05;;;;;;;3.73;3.20;;;16.00;54.10;;;15.18;58.00;98451.66;5081319;28;20462;-76
2022/06/18 02:48:36;;;;;;;3.33;3.03;;;16.10;54.30;;;15.28;57.87;98457.34;5086158;28;20447;-75
2022/06/18 02:51:05;;;;;;;4.57;4.13;;;16.10;54.30;;;15.19;57.54;98448.69;5089351;28;20497;-76
2022/06/18 02:53:33;;;;;;;4.00;3.17;;;16.10;54.30;;;15.28;57.78;98452.72;5094559;28;20451;-76
2022/06/18 02:56:04;;;;;;;4.10;3.20;;;16.10;54.30;;;15.29;57.45;98448.94;5102756;28;20467;-76
2022/06/18 02:58:37;;;;;;;3.60;3.30;;;16.20;54.30;;;15.21;57.59;98453.91;5100084;28;20439;-76
2022/06/18 03:01:08;;;;;;;3.70;3.40;;;16.10;54.10;;;14.91;57.52;98398.50;5103869;28;20460;-76
2022/06/18 03:03:38;;;;;;;3.80;3.40;;;16.10;54.40;;;15.17;57.91;98455.44;5086341;28;20455;-74
2022/06/18 03:06:07;;;;;;;3.70;3.40;;;16.10;54.50;;;15.17;57.51;98453.53;5081770;28;20456;-75
2022/06/18 03:08:36;;;;;;;3.50;3.30;;;16.10;54.40;;;15.22;57.14;98456.38;5087272;28;20446;-77
2022/06/18 03:13:52;;;;;;;3.50;3.20;;;16.10;54.00;;;15.06;57.50;98448.91;5085224;28;20447;-75
2022/06/18 03:16:22;;;;;;;4.40;3.23;;;16.00;54.10;;;15.15;57.24;98453.75;5080746;28;20875;-75
2022/06/18 03:18:52;;;;;;;3.60;3.20;;;16.10;54.20;;;15.08;57.81;98446.78;5088094;28;20463;-76
2022/06/18 03:21:26;;;;;;;5.83;3.53;;;16.00;54.20;;;15.13;58.12;98441.47;5104496;28;20452;-76
2022/06/18 03:23:54;;;;;;;4.07;3.70;;;16.00;54.90;;;15.19;57.76;98443.25;5082300;28;20525;-76
2022/06/18 03:26:22;;;;;;;4.10;3.80;;;16.10;54.60;;;15.17;57.90;98442.66;5068868;28;20453;-77
2022/06/18 03:28:50;;;;;;;3.90;3.60;;;16.10;54.60;;;15.20;57.83;98436.72;5085347;28;20470;-77
2022/06/18 03:31:17;;;;;;;4.67;3.73;;;16.10;54.60;;;15.27;57.72;98444.78;5086224;28;20518;-76
2022/06/18 03:33:46;;;;;;;4.10;3.80;;;16.20;54.70;;;15.32;57.38;98441.38;5084785;28;20970;-76
2022/06/18 03:36:17;;;;;;;3.53;3.10;;;16.20;54.70;;;15.39;57.26;98442.06;5087513;28;20497;-77
2022/06/18 03:38:45;;;;;;;3.30;3.10;;;16.20;54.60;;;15.39;57.53;98434.72;5074882;28;20452;-76
2022/06/18 03:41:13;;;;;;;3.50;3.20;;;16.30;54.60;;;15.35;57.14;98440.88;5087302;28;20516;-75
2022/06/18 03:43:40;;;;;;;3.80;3.50;;;16.30;54.50;;;15.29;57.20;98415.44;5085219;28;20460;-78
2022/06/18 03:46:12;;;;;;;3.83;3.53;;;16.30;54.40;;;15.53;57.21;98432.59;5082066;28;20968;-77
2022/06/18 03:48:46;;;;;;;3.70;3.50;;;16.50;54.50;;;15.52;56.80;98425.50;5093340;28;20444;-76
2022/06/18 03:51:15;;;;;;;3.67;3.37;;;16.50;54.30;;;15.53;56.96;98424.41;5086355;28;21004;-77
2022/06/18 03:53:43;;;;;;;4.13;3.60;;;16.60;54.30;;;15.64;56.44;98427.38;5097871;28;20611;-77
2022/06/18 03:56:11;;;;;;;7.10;3.30;;;16.50;53.90;;;15.70;56.25;98431.91;5100312;28;20447;-77
2022/06/18 03:58:40;;;;;;;3.73;3.43;;;16.60;53.90;;;15.78;55.93;98434.22;5083778;28;20640;-76
2022/06/18 04:01:11;;;;;;;4.87;3.60;;;16.70;53.70;;;15.90;55.59;98428.78;5078552;28;20460;-76
2022/06/18 04:03:38;;;;;;;3.40;3.10;;;16.80;53.60;;;15.94;55.90;98437.31;5085311;28;20878;-76
2022/06/18 04:06:07;;;;;;;7.73;3.13;;;16.90;54.00;;;16.34;55.01;98447.41;5083846;28;21034;-76
2022/06/18 04:08:34;;;;;;;3.60;3.40;;;17.20;53.50;;;16.75;53.25;98435.56;5086965;28;20448;-76
2022/06/18 04:11:01;;;;;;;3.70;3.40;;;17.70;52.70;;;17.06;52.32;98430.66;5097973;28;20446;-76
2022/06/18 04:13:29;;;;;;;3.33;3.10;;;18.20;52.00;;;17.50;51.29;98424.53;5100310;28;20463;-77
2022/06/18 04:15:56;;;;;;;4.77;3.23;;;18.60;51.30;;;17.77;50.69;98427.38;5089542;28;20483;-75
2022/06/18 04:18:25;;;;;;;4.53;3.33;;;19.00;51.00;;;17.97;49.83;98428.72;5090926;28;20959;-77
2022/06/18 04:20:54;;;;;;;3.70;3.37;;;19.10;50.40;;;18.03;49.77;98433.19;5089386;28;20470;-76
2022/06/18 04:23:22;;;;;;;3.87;3.57;;;19.30;50.00;;;18.34;48.77;98417.16;5090090;28;20455;-76
2022/06/18 04:25:49;;;;;;;3.90;3.60;;;19.60;49.80;;;18.98;46.93;98426.53;5075748;28;20506;-76
2022/06/18 04:28:19;;;;;;;3.73;3.43;;;20.00;49.00;;;19.31;46.39;98433.91;5083720;28;20482;-76
2022/06/18 04:30:47;;;;;;;6.30;3.20;;;20.40;48.80;;;19.51;45.74;98427.75;5080560;28;20456;-76
2022/06/18 04:33:15;;;;;;;4.07;3.10;;;20.90;48.10;;;19.56;45.12;98435.19;5089564;28;20546;-76
2022/06/18 04:35:44;;;;;;;4.03;2.97;;;20.90;47.60;;;19.89;44.32;98430.44;5088722;28;20447;-75
2022/06/18 04:38:13;;;;;;;2.97;2.67;;;21.10;47.50;;;20.43;43.56;98436.72;5090322;28;20512;-77
2022/06/18 04:40:40;;;;;;;3.53;3.23;;;21.30;47.50;;;20.71;42.29;98401.66;5094743;28;20499;-77
2022/06/18 04:43:10;;;;;;;3.60;3.10;;;22.00;47.20;;;20.32;43.10;98441.31;5091948;28;20433;-76
2022/06/18 04:45:38;;;;;;;3.40;3.10;;;21.70;46.70;;;20.36;43.48;98439.72;5086272;28;20482;-76
2022/06/18 04:48:07;;;;;;;4.73;3.87;;;21.80;46.90;;;20.58;42.85;98439.50;5080363;28;20461;-76
2022/06/18 04:50:38;;;;;;;3.37;3.10;;;22.00;46.50;;;20.82;42.54;98441.75;5088179;28;20452;-76
2022/06/18 04:53:09;;;;;;;4.03;3.13;;;22.10;46.50;;;21.54;41.06;98437.34;5078242;28;20450;-77
2022/06/18 04:55:37;;;;;;;3.20;3.00;;;22.40;46.30;;;21.28;41.41;98445.63;5089990;28;20458;-77
2022/06/18 04:58:05;;;;;;;3.80;3.40;;;22.40;46.10;;;21.93;40.27;98432.06;5088145;28;20553;-77
2022/06/18 05:00:32;;;;;;;4.50;3.50;;;22.90;45.90;;;21.78;40.39;98441.19;5078548;28;20471;-76
2022/06/18 05:03:00;;;;;;;3.50;3.30;;;23.10;45.70;;;22.63;38.91;98435.88;5087660;28;20553;-76
2022/06/18 05:05:29;;;;;;;2.73;2.53;;;23.60;45.70;;;22.52;38.98;98436.22;5083161;28;20477;-76
2022/06/18 05:07:56;;;;;;;2.70;2.50;;;23.60;45.30;;;22.67;38.32;98441.63;5074647;28;20968;-76
2022/06/18 05:10:25;;;;;;;3.83;3.27;;;23.70;45.00;;;23.27;37.24;98431.56;5085521;28;20546;-77
2022/06/18 05:12:52;;;;;;;3.50;3.17;;;24.30;44.70;;;22.36;38.70;98430.78;5089768;28;20458;-76
2022/06/18 05:15:20;;;;;;;3.57;3.33;;;23.80;44.70;;;21.79;40.07;98434.59;5083040;28;20514;-76
2022/06/18 05:17:47;;;;;;;2.90;2.67;;;23.30;44.80;;;22.54;38.62;98432.09;5100414;28;20474;-76
2022/06/18 05:20:19;;;;;;;3.00;2.80;;;23.60;45.00;;;22.76;38.47;98428.91;5101222;28;20444;-77
2022/06/18 05:22:47;;;;;;;6.23;3.50;;;23.70;45.00;;;23.32;37.35;98429.59;5097746;28;20455;-76
2022/06/18 05:25:16;;;;;;;3.70;3.40;;;24.10;44.80;;;24.77;35.15;98426.28;5092659;28;20449;-76
2022/06/18 05:27:47;;;;;;;3.60;3.40;;;25.00;44.60;;;24.01;35.86;98428.59;5096732;28;20474;-77
2022/06/18 05:30:17;;;;;;;3.67;3.37;;;25.30;44.10;;;23.10;37.60;98437.47;5091924;28;20463;-77
2022/06/18 05:32:45;;;;;;;3.30;3.10;;;24.70;43.90;;;23.99;35.94;98425.31;5097814;28;21037;-77
2022/06/18 05:35:14;;;;;;;3.80;3.50;;;24.90;43.90;;;23.58;36.73;98425.75;5101257;28;20435;-78
2022/06/18 05:37:42;;;;;;;3.33;3.13;;;24.80;44.00;;;23.89;36.33;98419.94;5097838;28;20552;-79
2022/06/18 05:40:12;;;;;;;3.83;3.63;;;24.90;44.20;;;22.62;38.73;98431.47;5090705;28;20500;-78
2022/06/18 05:42:39;;;;;;;3.00;2.80;;;24.40;44.00;;;22.82;38.64;98426.94;5085455;28;20443;-77
2022/06/18 05:45:09;;;;;;;6.30;3.30;;;24.00;44.50;;;24.09;36.19;98424.38;5089542;28;20942;-76
2022/06/18 05:47:39;;;;;;;3.77;3.47;;;24.80;44.40;;;24.35;35.85;98414.97;5089120;28;20509;-77
2022/06/18 05:50:12;;;;;;;3.80;3.50;;;25.40;44.10;;;24.60;36.08;98417.34;5090497;28;20931;-77
2022/06/18 05:52:39;;;;;;;3.60;3.27;;;25.70;44.20;;;24.84;35.50;98416.50;5079171;28;20441;-77
2022/06/18 05:55:07;;;;;;;4.20;3.60;;;26.10;44.20;;;24.94;35.13;98420.19;5088596;28;20752;-78
2022/06/18 05:57:34;;;;;;;4.60;3.40;;;26.10;43.60;;;24.57;35.99;98415.19;5086853;28;20475;-77
2022/06/18 06:00:08;;;;;;;4.70;3.03;;;25.90;43.60;;;23.89;37.11;98414.41;5083852;28;20464;-77
2022/06/18 06:02:35;;;;;;;4.27;3.33;;;25.40;43.90;;;24.98;35.60;98415.72;5079007;28;20451;-76
2022/06/18 06:05:03;;;;;;;3.30;3.00;;;25.80;44.10;;;24.63;35.80;98413.19;5086763;28;20947;-77
2022/06/18 06:07:30;;;;;;;3.90;2.77;;;25.90;43.80;;;25.38;34.81;98410.59;5086243;28;20444;-76
2022/06/18 06:12:43;;;;;;;4.03;3.53;;;27.50;43.20;;;25.79;34.07;98411.84;5099495;28;20448;-77
2022/06/18 06:15:12;;;;;;;3.17;2.97;;;27.20;42.90;;;26.47;32.82;98402.13;5101340;28;20550;-76
2022/06/18 06:17:39;;;;;;;3.77;3.27;;;27.40;43.00;;;26.05;33.60;98402.19;5088024;28;20467;-77
2022/06/18 06:20:14;;;;;;;4.17;3.20;;;27.30;43.00;;;25.89;33.76;98405.28;5089636;28;20443;-77
2022/06/18 06:22:42;;;;;;;4.30;2.97;;;26.90;43.20;;;26.48;33.70;98401.84;5081737;28;20452;-77
2022/06/18 06:25:09;;;;;;;3.83;3.53;;;27.30;43.20;;;26.96;32.86;98403.22;5067926;28;20445;-76
2022/06/18 06:27:37;;;;;;;3.87;3.00;;;28.00;43.10;;;26.75;32.84;98408.41;5070983;28;20997;-78
2022/06/18 06:30:05;;;;;;;5.03;3.20;;;27.90;42.50;;;26.94;32.19;98407.47;5079327;28;20466;-78
2022/06/18 06:32:33;;;;;;;3.53;3.27;;;28.30;42.20;;;26.00;33.54;98409.44;5086989;28;20470;-78
2022/06/18 06:35:00;;;;;;;3.80;3.50;;;27.80;42.20;;;25.22;33.99;98409.22;5067315;28;20437;-77
2022/06/18 06:37:28;;;;;;;3.57;3.27;;;26.70;42.50;;;24.07;35.86;98398.22;5066304;28;20488;-77
2022/06/18 06:39:55;;;;;;;4.83;3.50;;;25.60;42.80;;;24.03;36.50;98393.28;5084216;28;20452;-78
2022/06/18 06:42:22;;;;;;;3.93;3.60;;;25.20;43.70;;;23.79;36.26;98392.47;5068581;28;20538;-77
2022/06/18 06:44:50;;;;;;;8.20;4.30;;;24.80;43.50;;;24.16;36.25;98388.97;5084119;28;20459;-77
2022/06/18 06:47:17;;;;;;;5.63;3.50;;;24.80;43.90;;;24.22;36.29;98391.66;5077000;28;20552;-76
2022/06/18 06:49:46;;;;;;;4.73;4.00;;;24.90;43.90;;;23.90;36.70;98389.28;5085831;28;20788;-76
2022/06/18 06:52:14;;;;;;;4.00;3.60;;;24.80;43.90;;;23.68;36.97;98384.28;5073745;28;20463;-76
2022/06/18 06:54:41;;;;;;;5.10;3.83;;;24.60;43.90;;;23.67;37.02;98379.91;5081005;28;20510;-76
2022/06/18 06:57:23;;;;;;;4.60;4.20;;;24.40;44.10;;;24.00;36.54;98393.84;5085599;28;20537;-76
2022/06/18 06:59:50;;;;;;;4.53;4.13;;;24.60;44.20;;;24.04;36.74;98386.66;5067430;28;20462;-76
2022/06/18 07:02:21;;;;;;;4.53;4.20;;;24.80;44.20;;;23.98;36.84;98395.28;5079961;28;20459;-76
2022/06/18 07:04:49;;;;;;;4.00;3.70;;;24.80;44.30;;;24.00;36.76;98393.84;5086744;28;20554;-77
2022/06/18 07:07:17;;;;;;;4.90;4.20;;;24.80;44.30;;;24.13;36.96;98386.00;5080292;28;20560;-77
2022/06/18 07:09:44;;;;;;;5.50;5.00;;;24.80;44.40;;;24.15;36.80;98378.22;5085419;28;20452;-77
2022/06/18 07:12:11;;;;;;;6.10;4.70;;;24.90;44.40;;;24.30;36.68;98380.78;5087346;28;20435;-77
2022/06/18 07:14:38;;;;;;;4.83;4.23;;;25.00;44.60;;;24.45;36.62;98382.50;5086189;28;20977;-78
2022/06/18 07:17:05;;;;;;;5.37;4.87;;;25.10;44.50;;;24.52;36.80;98386.84;5084428;28;20463;-78
2022/06/18 07:19:33;;;;;;;4.53;4.17;;;25.20;44.60;;;24.59;36.83;98366.00;5086567;28;20459;-78
2022/06/18 07:22:02;;;;;;;5.40;4.27;;;25.20;44.60;;;24.56;36.91;98372.13;5083477;28;20480;-78
2022/06/18 07:24:29;;;;;;;7.10;4.67;;;25.20;44.70;;;24.58;36.75;98369.88;5081749;28;20463;-78
2022/06/18 07:26:56;;;;;;;5.23;4.60;;;25.30;44.70;;;25.00;35.87;98374.78;5084858;28;20501;-78
2022/06/18 07:29:24;;;;;;;4.47;4.10;;;25.50;44.70;;;25.17;36.19;98363.16;5082462;28;20513;-78
2022/06/18 07:31:51;;;;;;;5.63;4.20;;;25.70;44.70;;;25.49;35.56;98363.44;5081686;28;20491;-77
2022/06/18 07:34:18;;;;;;;4.87;4.50;;;26.00;44.50;;;25.78;35.20;98368.69;5076349;28;21041;-78
2022/06/18 07:36:46;;;;;;;5.60;4.33;;;26.30;44.40;;;25.29;35.92;98360.72;5074169;28;20460;-77
2022/06/18 07:39:15;;;;;;;5.37;4.97;;;26.00;44.30;;;25.29;35.41;98359.91;5087181;28;20490;-76
2022/06/18 07:41:50;;;;;;;4.80;4.43;;;26.00;44.30;;;25.58;34.88;98350.56;5085813;28;20452;-76
2022/06/18 07:44:17;;;;;;;4.63;4.33;;;26.10;44.30;;;25.83;34.09;98345.59;5085948;28;20443;-77
2022/06/18 07:46:45;;;;;;;6.33;4.93;;;26.40;43.80;;;26.27;34.23;98349.66;5084424;28;20463;-76
2022/06/18 07:49:13;;;;;;;4.77;4.37;;;26.70;44.00;;;26.15;33.99;98339.09;5090439;28;20439;-76
2022/06/18 07:51:40;;;;;;;4.70;4.40;;;26.70;43.60;;;26.55;33.75;98349.56;5090250;28;20482;-77
2022/06/18 07:54:09;;;;;;;4.40;4.10;;;27.00;43.90;;;26.45;33.52;98338.72;5088183;28;20452;-77
2022/06/18 07:56:38;;;;;;;4.93;4.50;;;27.00;43.50;;;26.69;33.08;98337.63;5092262;28;20443;-77
2022/06/18 07:59:05;;;;;;;4.60;4.20;;;27.20;43.30;;;26.76;32.28;98315.81;5085940;28;20463;-76
2022/06/18 08:01:32;;;;;;;5.20;4.73;;;27.30;42.90;;;27.01;32.83;98341.28;5091693;28;20460;-77
2022/06/18 08:04:01;;;;;;;4.93;4.43;;;27.60;43.30;;;27.10;33.35;98341.34;5088670;28;20452;-76
2022/06/18 08:06:29;;;;;;;5.07;4.53;;;27.70;43.50;;;27.19;32.36;98302.56;5085628;28;20455;-77
2022/06/18 08:08:56;;;;;;;4.63;4.33;;;27.90;43.30;;;27.35;32.21;98336.25;5084538;28;20456;-77
2022/06/18 08:11:25;;;;;;;5.60;5.20;;;27.90;43.10;;;27.56;32.76;98320.69;5099215;27;20456;-77
2022/06/18 08:13:54;;;;;;;4.60;4.20;;;28.10;43.30;;;27.53;32.42;98326.09;5095109;28;20564;-77
2022/06/18 08:16:21;;;;;;;5.00;4.60;;;28.00;43.10;;;27.62;31.86;98318.59;5086887;28;20452;-77
2022/06/18 08:18:49;;;;;;;5.00;4.47;;;28.20;43.20;;;27.27;32.21;98326.75;5089605;28;20478;-76
2022/06/18 08:21:20;;;;;;;4.87;4.37;;;27.90;42.90;;;27.56;32.29;98315.16;5081723;28;20859;-77
2022/06/18 08:23:47;;;;;;;4.93;4.53;;;28.00;43.10;;;27.49;32.04;98313.94;5089255;28;20459;-77
2022/06/18 08:26:15;;;;;;;4.57;4.23;;;28.00;43.00;;;27.57;32.19;98315.97;5086325;28;20460;-77
2022/06/18 08:28:43;;;;;;;10.73;5.40;;;28.00;43.10;;;27.86;32.24;98312.63;5085207;28;20616;-77
2022/06/18 08:31:13;;;;;;;4.60;4.30;;;28.30;43.30;;;28.08;31.31;98304.47;5087876;28;20479;-77
2022/06/18 08:33:40;;;;;;;5.87;3.80;;;28.50;42.80;;;28.35;31.04;98310.91;5089886;28;20513;-77
2022/06/18 08:36:14;;;;;;;3.60;3.30;;;28.70;42.60;;;28.28;30.85;98312.22;5089878;28;20546;-77
2022/06/18 08:38:43;;;;;;;4.63;4.33;;;28.80;42.20;;;28.37;31.03;98305.84;5087311;28;20512;-77
2022/06/18 08:41:27;;;;;;;4.30;3.90;;;28.90;42.50;;;28.58;30.62;98302.38;5079909;28;20935;-77
2022/06/18 08:44:35;;;;;;;3.87;3.57;;;29.00;42.30;;;28.77;30.27;98305.66;5087961;28;20444;-77
2022/06/18 08:47:17;;;;;;;4.77;4.47;;;29.20;42.20;;;29.11;29.72;98314.25;5089811;28;20455;-78
2022/06/18 08:50:19;;;;;;;3.77;3.47;;;29.40;42.10;;;29.43;29.38;98308.44;5087361;28;20459;-77
2022/06/18 08:53:21;;;;;;;4.00;3.70;;;29.70;41.90;;;29.29;29.12;98298.31;5090045;28;20453;-77
2022/06/18 08:56:02;;;;;;;3.27;3.07;;;29.70;41.40;;;29.38;28.24;98301.88;5090011;28;20453;-77
2022/06/18 08:58:34;;;;;;;3.23;2.93;;;29.80;40.80;;;29.20;28.02;98289.22;5089247;28;20482;-77
2022/06/18 09:01:12;;;;;;;2.87;2.60;;;29.70;40.40;;;29.52;27.42;98296.13;5086595;28;20460;-78
2022/06/18 09:04:01;;;;;;;3.20;2.70;;;29.90;40.30;;;29.50;27.34;98287.28;5090101;28;20462;-77
2022/06/18 09:06:43;;;;;;;3.00;2.90;;;29.90;40.20;;;29.50;27.93;98286.50;5089589;28;20452;-78
2022/06/18 09:09:17;;;;;;;3.90;3.10;;;30.00;40.20;;;29.56;26.85;98251.75;5090745;28;20448;-78
2022/06/18 09:12:00;;;;;;;3.50;3.17;;;30.10;40.00;;;29.83;26.39;98274.66;5086910;28;20523;-76
2022/06/18 09:14:35;;;;;;;2.90;2.70;;;30.20;39.90;;;29.71;26.81;98263.44;5089643;28;20463;-77
2022/06/18 09:17:11;;;;;;;4.90;2.47;;;30.30;39.90;;;29.88;26.43;98274.44;5079374;28;20453;-78
2022/06/18 09:19:44;;;;;;;3.20;2.53;;;30.30;39.40;;;29.86;26.58;98271.19;5088191;28;20483;-77
2022/06/18 09:22:16;;;;;;;3.23;2.90;;;30.30;39.50;;;30.06;25.67;98269.63;5084714;28;20620;-78
2022/06/18 09:24:47;;;;;;;3.20;2.80;;;30.40;39.30;;;30.09;26.33;98262.53;5085948;28;20455;-77
2022/06/18 09:27:24;;;;;;;4.00;2.50;;;30.50;39.30;;;30.48;25.60;98268.75;5081876;28;20483;-77
2022/06/18 09:30:00;;;;;;;3.07;2.70;;;30.60;39.50;;;30.49;25.68;98270.38;5090272;28;20486;-77
2022/06/18 09:32:34;;;;;;;2.20;2.10;;;30.80;39.00;;;30.27;25.59;98259.63;5086605;28;21212;-77
2022/06/18 09:35:12;;;;;;;2.83;2.67;;;30.70;38.80;;;30.31;26.06;98268.91;5089326;28;20568;-77
2022/06/18 09:37:44;;;;;;;2.30;2.20;;;30.70;39.30;;;30.23;25.35;98249.13;5069042;28;20512;-78
2022/06/18 09:40:19;;;;;;;2.53;2.43;;;30.80;39.00;;;30.40;25.12;98250.13;5076892;28;20974;-78
2022/06/18 09:42:52;;;;;;;4.13;2.50;;;30.80;38.80;;;30.32;24.72;98240.69;5077432;28;20456;-78
2022/06/18 09:45:25;;;;;;;4.30;2.60;;;30.90;38.30;;;30.28;25.35;98244.53;5093963;28;20870;-78
2022/06/18 09:47:53;;;;;;;2.50;2.40;;;30.80;38.40;;;30.18;25.23;98243.78;5088220;28;20943;-78
2022/06/18 09:50:31;;;;;;;2.57;2.37;;;30.60;38.40;;;30.42;25.27;98235.88;5088197;28;20463;-78
2022/06/18 09:53:04;;;;;;;2.73;2.53;;;30.70;38.60;;;30.34;25.13;98243.16;5088491;28;20470;-78
2022/06/18 09:55:40;;;;;;;3.50;2.70;;;30.70;38.30;;;30.48;24.76;98243.69;5087593;28;20451;-77
2022/06/18 09:58:15;;;;;;;2.83;2.60;;;30.80;38.50;;;30.42;25.27;98244.22;5080366;28;20445;-77
2022/06/18 10:00:43;;;;;;;4.27;2.70;;;30.90;38.50;;;30.11;25.73;98246.31;5084828;28;20474;-77
2022/06/18 10:06:52;;;;;;;3.53;2.17;;;30.70;38.70;;;30.28;25.45;98253.69;5089085;28;21071;-79
2022/06/18 10:08:55;;;;;;;2.77;2.57;;;30.80;38.30;;;30.45;24.72;98213.72;5086168;28;20475;-78
2022/06/18 10:11:24;;;;;;;2.97;2.67;;;30.90;38.30;;;30.84;24.05;98240.53;5087861;28;20504;-78
2022/06/18 10:13:59;;;;;;;2.50;2.17;;;31.10;38.30;;;30.73;23.72;98238.22;5083570;28;20470;-78
2022/06/18 10:16:37;;;;;;;2.93;2.73;;;31.10;37.50;;;30.75;24.40;98243.44;5088557;28;20464;-78
2022/06/18 10:19:14;;;;;;;4.53;2.40;;;31.10;38.20;;;30.46;24.20;98234.84;5093508;28;20475;-79
2022/06/18 10:21:53;;;;;;;3.10;2.30;;;31.00;38.00;;;30.72;24.32;98233.81;5082419;28;20874;-77
2022/06/18 10:24:31;;;;;;;5.33;2.60;;;31.10;38.20;;;30.86;24.50;98232.63;5085301;28;20447;-78
2022/06/18 10:27:07;;;;;;;5.27;2.60;;;31.20;38.00;;;30.35;23.57;98225.28;5100039;28;20447;-78
2022/06/18 10:29:43;;;;;;;3.03;2.57;;;30.90;37.40;;;30.56;23.99;98219.66;5074819;28;20534;-77
2022/06/18 10:32:28;;;;;;;2.43;2.23;;;30.90;37.40;;;30.88;24.21;98225.56;5080245;28;20447;-78
2022/06/18 10:35:16;;;;;;;2.70;2.40;;;31.10;37.80;;;30.77;23.84;98224.38;5087031;28;20872;-78
2022/06/18 10:37:57;;;;;;;3.90;2.27;;;31.20;37.70;;;30.53;23.66;98214.78;5068055;28;20811;-78
2022/06/18 10:40:37;;;;;;;4.27;2.60;;;31.10;37.30;;;30.62;24.82;98217.47;5085882;28;20574;-77
2022/06/18 10:43:33;;;;;;;3.10;2.80;;;31.00;37.90;;;30.99;23.97;98208.41;5077033;28;20463;-77
2022/06/18 10:46:06;;;;;;;4.47;2.70;;;31.20;38.10;;;31.00;23.58;98199.66;5079602;28;20460;-78
2022/06/18 10:48:35;;;;;;;3.60;2.83;;;31.40;37.70;;;31.27;24.16;98202.94;5086102;28;20456;-77